Аэропорт
Игнатьево (UHBB)

 UHBB / BQS
ЗЦ Хабаровск
Хабаровск (UHHH)
Хабаровск (UHHH)
 50.42540, 127.41200  / 638 ft

 UHBB 111600Z 35001MPS 6000 NSC M25/M28 Q1026 R36/410260 NOSIG RMK QFE752/1003
 UHBB 111040Z 1112/1212 VRB01MPS 3100 BR SCT020 FM120000 07003MPS CAVOK
uhbb_aip_1605
показать схемы
Название сценария Тип сценария Flight Simulator 9 Flight Simulator X Prepar3D v2 Prepar3D v3 Prepar3D v4 xPlane
uhbb-scenery-fs9-1406 бесплатный
uhbb-scenery-xpl-1209 бесплатный


2018 © VATRUS division